createdAt,value
2018-03-31T00:01:04.981Z,12.40
2018-03-31T00:03:32.122Z,12.90
2018-03-31T00:05:59.220Z,13.07
2018-03-31T00:08:27.111Z,12.53
2018-03-31T00:10:54.638Z,13.33
2018-03-31T00:13:22.515Z,12.07
2018-03-31T00:15:50.422Z,14.27
2018-03-31T00:18:17.582Z,14.13
2018-03-31T00:20:44.696Z,11.67
2018-03-31T00:23:11.859Z,12.43
2018-03-31T00:25:39.767Z,14.70
2018-03-31T00:28:07.285Z,16.77
2018-03-31T00:30:34.438Z,13.40
2018-03-31T00:33:01.583Z,12.30
2018-03-31T00:35:28.727Z,13.63
2018-03-31T00:37:57.293Z,13.83
2018-03-31T00:40:24.498Z,13.83
2018-03-31T00:42:51.609Z,13.13
2018-03-31T00:45:18.950Z,13.80
2018-03-31T00:47:46.992Z,14.63
2018-03-31T00:50:14.435Z,14.37
2018-03-31T00:52:41.597Z,13.70
2018-03-31T00:55:08.681Z,14.90
2018-03-31T00:57:35.920Z,13.80
2018-03-31T01:00:03.174Z,13.10
2018-03-31T01:02:31.166Z,15.27
2018-03-31T01:05:00.041Z,14.90
2018-03-31T01:07:27.230Z,14.60
2018-03-31T01:09:55.006Z,13.07
2018-03-31T01:12:22.997Z,13.53
2018-03-31T01:14:50.901Z,15.17
2018-03-31T01:17:18.955Z,15.37
2018-03-31T01:19:46.251Z,14.53
2018-03-31T01:22:13.493Z,14.30
2018-03-31T01:24:40.652Z,13.83
2018-03-31T01:27:07.825Z,15.37
2018-03-31T01:29:35.790Z,13.67
2018-03-31T01:32:03.742Z,14.13
2018-03-31T01:34:31.672Z,13.50
2018-03-31T01:36:58.765Z,14.43
2018-03-31T01:39:26.006Z,15.03
2018-03-31T01:41:53.957Z,13.27
2018-03-31T01:44:21.060Z,14.13
2018-03-31T01:46:48.239Z,14.40
2018-03-31T01:49:15.833Z,16.37
2018-03-31T01:51:44.359Z,12.77
2018-03-31T01:54:11.531Z,14.07
2018-03-31T01:56:38.707Z,15.23
2018-03-31T01:59:06.580Z,14.40
2018-03-31T02:01:33.836Z,11.87
2018-03-31T02:04:00.950Z,15.23
2018-03-31T02:06:28.168Z,13.00
2018-03-31T02:08:56.075Z,14.43
2018-03-31T02:11:23.302Z,13.47
2018-03-31T02:13:50.418Z,14.70
2018-03-31T02:16:18.325Z,15.77
2018-03-31T02:18:46.215Z,14.00
2018-03-31T02:21:14.125Z,15.47
2018-03-31T02:23:41.256Z,16.53
2018-03-31T02:26:08.386Z,14.07
2018-03-31T02:28:35.556Z,13.97
2018-03-31T02:31:03.495Z,14.30
2018-03-31T02:33:30.617Z,13.83
2018-03-31T02:36:00.022Z,13.60
2018-03-31T02:38:27.617Z,13.83
2018-03-31T02:40:54.980Z,13.63
2018-03-31T02:43:22.093Z,15.33
2018-03-31T02:45:49.192Z,15.23
2018-03-31T02:48:16.371Z,12.67
2018-03-31T02:50:44.011Z,12.93
2018-03-31T02:53:11.876Z,14.23
2018-03-31T02:55:39.815Z,15.07
2018-03-31T02:58:06.938Z,12.90
2018-03-31T03:00:34.088Z,15.17
2018-03-31T03:03:01.238Z,12.70
2018-03-31T03:05:28.356Z,16.17
2018-03-31T03:07:55.503Z,15.20
2018-03-31T03:10:22.643Z,14.20
2018-03-31T03:12:49.799Z,14.03
2018-03-31T03:15:16.923Z,13.03
2018-03-31T03:17:44.886Z,14.97
2018-03-31T03:20:12.028Z,14.80
2018-03-31T03:22:39.190Z,13.93
2018-03-31T03:25:07.122Z,14.57
2018-03-31T03:27:34.241Z,14.60
2018-03-31T03:30:01.373Z,13.80
2018-03-31T03:32:28.527Z,14.07
2018-03-31T03:34:55.660Z,12.83
2018-03-31T03:37:25.824Z,13.87
2018-03-31T03:39:52.930Z,12.20
2018-03-31T03:42:20.083Z,13.93
2018-03-31T03:44:47.258Z,14.53
2018-03-31T03:47:14.371Z,13.17
2018-03-31T03:49:42.260Z,12.73
2018-03-31T03:52:09.395Z,14.57
2018-03-31T03:54:36.546Z,13.20
2018-03-31T03:57:04.415Z,12.37
2018-03-31T03:59:31.549Z,15.13
2018-03-31T04:01:59.463Z,12.90
2018-03-31T04:04:26.579Z,13.77
2018-03-31T04:06:53.701Z,14.23
2018-03-31T04:09:20.850Z,12.77
2018-03-31T04:11:48.736Z,13.43
2018-03-31T04:14:16.704Z,12.90
2018-03-31T04:16:49.645Z,13.90
2018-03-31T04:19:21.795Z,14.87
2018-03-31T04:21:58.948Z,14.30
2018-03-31T04:24:31.220Z,15.20
2018-03-31T04:27:04.417Z,14.87
2018-03-31T04:29:33.032Z,14.57
2018-03-31T04:32:03.947Z,13.37
2018-03-31T04:34:33.437Z,13.53
2018-03-31T04:37:06.142Z,13.10
2018-03-31T04:39:33.660Z,14.20
2018-03-31T04:42:07.189Z,13.40
2018-03-31T04:44:36.309Z,13.73
2018-03-31T04:47:07.441Z,14.73
2018-03-31T04:49:35.561Z,13.90
2018-03-31T04:52:05.469Z,14.97
2018-03-31T04:57:11.141Z,15.10
2018-03-31T04:59:42.427Z,14.37
2018-03-31T05:02:13.221Z,13.27
2018-03-31T05:04:45.575Z,14.47
2018-03-31T05:07:15.071Z,15.80
2018-03-31T05:09:46.950Z,13.73
2018-03-31T05:14:55.357Z,12.80
2018-03-31T05:17:23.649Z,15.33
2018-03-31T05:22:33.261Z,15.53
2018-03-31T05:25:04.653Z,14.23
2018-03-31T05:27:32.145Z,14.67
2018-03-31T05:30:05.589Z,16.53
2018-03-31T05:32:36.906Z,13.60
2018-03-31T05:35:06.626Z,14.00
2018-03-31T05:37:36.107Z,15.53
2018-03-31T05:40:07.937Z,13.97
2018-03-31T05:45:12.904Z,13.43
2018-03-31T05:47:44.304Z,13.90
2018-03-31T05:50:14.057Z,13.33
2018-03-31T05:52:46.410Z,13.67
2018-03-31T05:55:16.607Z,14.17
2018-03-31T05:57:50.810Z,13.33
2018-03-31T06:00:22.416Z,14.03
2018-03-31T06:02:52.736Z,15.73
2018-03-31T06:05:26.178Z,16.57
2018-03-31T06:07:54.924Z,14.17
2018-03-31T06:10:23.838Z,15.53
2018-03-31T06:12:54.517Z,14.20
2018-03-31T06:15:24.048Z,13.97
2018-03-31T06:17:53.854Z,13.60
2018-03-31T06:20:23.053Z,15.20
2018-03-31T06:22:56.947Z,13.17
2018-03-31T06:25:29.526Z,16.77
2018-03-31T06:27:59.438Z,14.57
2018-03-31T06:30:31.460Z,13.97
2018-03-31T06:33:03.699Z,14.90
2018-03-31T06:35:34.097Z,15.87
2018-03-31T06:38:03.051Z,15.43
2018-03-31T06:40:35.339Z,17.50
2018-03-31T06:43:06.212Z,14.37
2018-03-31T06:45:36.220Z,16.03
2018-03-31T06:48:06.993Z,15.00
2018-03-31T06:50:36.453Z,14.53
2018-03-31T06:53:06.434Z,14.90
2018-03-31T06:55:37.504Z,17.37
2018-03-31T06:58:07.503Z,16.03
2018-03-31T07:00:36.246Z,15.77
2018-03-31T07:03:09.702Z,15.07
2018-03-31T07:05:39.093Z,15.87
2018-03-31T07:08:11.584Z,16.80
2018-03-31T07:10:41.801Z,15.53
2018-03-31T07:13:13.239Z,13.47
2018-03-31T07:15:44.421Z,15.33
2018-03-31T07:18:12.730Z,14.03
2018-03-31T07:20:44.291Z,13.00
2018-03-31T07:23:15.139Z,15.00
2018-03-31T07:25:45.459Z,17.77
2018-03-31T07:28:17.263Z,16.37
2018-03-31T07:30:49.564Z,14.70
2018-03-31T07:33:22.630Z,16.07
2018-03-31T07:35:59.211Z,16.00
2018-03-31T07:41:04.644Z,18.80
2018-03-31T07:43:40.654Z,16.30
2018-03-31T07:46:16.144Z,16.20
2018-03-31T07:48:45.097Z,17.40
2018-03-31T07:51:17.016Z,17.40
2018-03-31T07:56:27.239Z,17.87
2018-03-31T07:58:57.091Z,20.57
2018-03-31T08:01:39.730Z,18.47
2018-03-31T08:04:13.161Z,18.40
2018-03-31T08:06:44.093Z,19.27
2018-03-31T08:09:14.254Z,17.40
2018-03-31T08:11:43.916Z,17.37
2018-03-31T08:14:14.140Z,17.20
2018-03-31T08:16:43.064Z,17.77
2018-03-31T08:19:12.807Z,23.43
2018-03-31T08:21:44.163Z,18.83
2018-03-31T08:24:18.469Z,21.37
2018-03-31T08:26:50.054Z,19.87
2018-03-31T08:29:18.464Z,21.17
2018-03-31T08:31:51.026Z,18.20
2018-03-31T08:34:23.032Z,20.07
2018-03-31T08:36:53.049Z,20.87
2018-03-31T08:39:26.151Z,19.90
2018-03-31T08:41:53.883Z,20.27
2018-03-31T08:44:23.455Z,21.00
2018-03-31T08:46:53.185Z,18.87
2018-03-31T08:49:24.612Z,20.83
2018-03-31T08:51:54.645Z,23.50
2018-03-31T08:54:24.948Z,20.70
2018-03-31T08:56:55.326Z,21.23
2018-03-31T08:59:23.962Z,20.30
2018-03-31T09:01:53.984Z,19.37
2018-03-31T09:04:27.850Z,22.27
2018-03-31T09:07:02.079Z,20.73
2018-03-31T09:09:35.660Z,22.43
2018-03-31T09:12:04.258Z,18.93
2018-03-31T09:14:36.735Z,20.77
2018-03-31T09:17:07.919Z,19.90
2018-03-31T09:19:35.158Z,21.80
2018-03-31T09:22:02.446Z,21.40
2018-03-31T09:24:30.373Z,21.53
2018-03-31T09:26:57.619Z,22.87
2018-03-31T09:29:25.543Z,22.20
2018-03-31T09:31:53.130Z,23.07
2018-03-31T09:34:21.007Z,21.53
2018-03-31T09:36:48.894Z,22.50
2018-03-31T09:39:16.144Z,24.03
2018-03-31T09:41:43.562Z,26.23
2018-03-31T09:44:10.729Z,24.63
2018-03-31T09:46:38.735Z,26.47
2018-03-31T09:49:05.834Z,22.47
2018-03-31T09:51:32.988Z,23.40
2018-03-31T09:54:00.901Z,19.00
2018-03-31T09:56:28.008Z,21.87
2018-03-31T09:58:55.942Z,23.53
2018-03-31T10:01:23.055Z,21.57
2018-03-31T10:03:50.174Z,21.17
2018-03-31T10:06:18.073Z,21.97
2018-03-31T10:08:45.199Z,24.27
2018-03-31T10:11:12.350Z,23.53
2018-03-31T10:13:39.485Z,21.63
2018-03-31T10:16:07.364Z,20.50
2018-03-31T10:18:34.857Z,21.47
2018-03-31T10:21:01.987Z,21.93
2018-03-31T10:23:29.723Z,24.50
2018-03-31T10:25:57.603Z,22.97
2018-03-31T10:28:24.749Z,21.83
2018-03-31T10:30:51.971Z,21.13
2018-03-31T10:33:19.143Z,25.17
2018-03-31T10:35:46.273Z,22.10
2018-03-31T10:38:14.215Z,21.37
2018-03-31T10:40:41.446Z,20.93
2018-03-31T10:43:08.598Z,24.17
2018-03-31T10:45:35.902Z,23.80
2018-03-31T10:48:03.826Z,23.43
2018-03-31T10:50:33.817Z,24.27
2018-03-31T10:53:01.284Z,25.57
2018-03-31T10:55:28.491Z,23.97
2018-03-31T10:57:56.374Z,23.00
2018-03-31T11:00:23.549Z,23.27
2018-03-31T11:02:50.679Z,24.17
2018-03-31T11:05:18.008Z,23.33
2018-03-31T11:07:45.902Z,29.23
2018-03-31T11:10:13.192Z,25.10
2018-03-31T11:12:40.405Z,22.97
2018-03-31T11:15:07.698Z,22.27
2018-03-31T11:17:34.826Z,22.57
2018-03-31T11:20:02.210Z,21.33
2018-03-31T11:22:29.328Z,21.27
2018-03-31T11:24:56.585Z,21.10
2018-03-31T11:27:24.894Z,20.30
2018-03-31T11:29:53.386Z,22.07
2018-03-31T11:32:23.856Z,19.97
2018-03-31T11:34:52.790Z,21.27
2018-03-31T11:37:24.693Z,20.50
2018-03-31T11:39:56.739Z,22.27
2018-03-31T11:42:28.923Z,20.77
2018-03-31T11:44:56.887Z,22.20
2018-03-31T11:47:26.808Z,20.83
2018-03-31T11:49:58.288Z,24.50
2018-03-31T11:52:26.427Z,27.70
2018-03-31T11:54:55.247Z,21.90
2018-03-31T11:57:24.922Z,23.43
2018-03-31T11:59:52.837Z,20.90
2018-03-31T12:02:27.927Z,24.03
2018-03-31T12:04:58.004Z,25.57
2018-03-31T12:07:28.219Z,23.37
2018-03-31T12:09:58.013Z,25.60
2018-03-31T12:12:28.009Z,23.60
2018-03-31T12:15:04.464Z,24.37
2018-03-31T12:17:33.427Z,25.20
2018-03-31T12:20:03.010Z,25.07
2018-03-31T12:58:37.442Z,22.07
2018-03-31T13:01:04.890Z,23.83
2018-03-31T13:03:33.811Z,22.40
2018-03-31T13:06:01.070Z,22.17
2018-03-31T13:08:28.934Z,21.20
2018-03-31T13:10:56.819Z,23.17
2018-03-31T13:13:23.976Z,24.97
2018-03-31T13:15:51.098Z,20.70
2018-03-31T13:18:18.227Z,21.03
2018-03-31T13:20:46.152Z,20.63
2018-03-31T13:23:13.295Z,20.40
2018-03-31T13:25:40.399Z,20.50
2018-03-31T13:28:08.329Z,21.00
2018-03-31T13:30:35.474Z,22.37
2018-03-31T13:33:02.608Z,23.20
2018-03-31T13:35:29.726Z,20.53
2018-03-31T13:37:57.634Z,20.67
2018-03-31T13:40:24.747Z,19.97
2018-03-31T13:42:51.851Z,22.27
2018-03-31T13:45:18.983Z,20.87
2018-03-31T13:47:46.101Z,21.23
2018-03-31T13:50:13.350Z,21.90
2018-03-31T13:52:40.507Z,19.13
2018-03-31T13:55:07.798Z,24.57
2018-03-31T13:57:35.699Z,21.27
2018-03-31T14:00:03.597Z,21.07
2018-03-31T14:02:30.722Z,21.63
2018-03-31T14:04:57.872Z,29.33
2018-03-31T14:07:24.972Z,23.03
2018-03-31T14:09:52.091Z,25.50
2018-03-31T14:12:19.240Z,21.77
2018-03-31T14:14:46.331Z,22.00
2018-03-31T14:17:13.548Z,23.07
2018-03-31T14:19:40.687Z,22.60
2018-03-31T14:22:07.865Z,24.70
2018-03-31T14:24:34.988Z,23.73
2018-03-31T14:27:02.135Z,23.43
2018-03-31T14:29:29.255Z,23.13
2018-03-31T14:31:57.133Z,20.93
2018-03-31T14:34:24.514Z,23.27
2018-03-31T14:36:51.672Z,24.73
2018-03-31T14:39:18.784Z,21.63
2018-03-31T14:41:46.067Z,21.53
2018-03-31T14:44:13.220Z,24.93
2018-03-31T14:46:40.344Z,19.67
2018-03-31T14:49:07.455Z,26.27
2018-03-31T14:51:35.363Z,22.37
2018-03-31T14:54:02.501Z,22.30
2018-03-31T14:56:29.602Z,21.23
2018-03-31T14:58:56.716Z,23.33
2018-03-31T15:01:23.930Z,20.23
2018-03-31T15:03:51.834Z,20.37
2018-03-31T15:06:18.946Z,25.27
2018-03-31T15:08:46.078Z,24.87
2018-03-31T15:11:13.192Z,25.97
2018-03-31T15:13:40.323Z,26.17
2018-03-31T15:16:07.470Z,24.47
2018-03-31T15:18:34.574Z,27.50
2018-03-31T15:21:02.720Z,25.80
2018-03-31T15:23:29.870Z,28.27
2018-03-31T15:25:56.995Z,25.83
2018-03-31T15:28:24.178Z,25.00
2018-03-31T15:30:51.303Z,22.93
2018-03-31T15:33:18.414Z,24.70
2018-03-31T15:35:45.592Z,29.60
2018-03-31T15:38:12.695Z,30.17
2018-03-31T15:40:40.625Z,27.33
2018-03-31T15:43:07.797Z,26.10
2018-03-31T15:45:34.917Z,28.03
2018-03-31T15:48:02.023Z,24.97
2018-03-31T15:50:29.162Z,27.00
2018-03-31T15:52:57.035Z,28.20
2018-03-31T15:55:24.157Z,25.87
2018-03-31T15:57:51.314Z,37.10
2018-03-31T16:00:19.183Z,26.80
2018-03-31T16:02:47.143Z,27.07
2018-03-31T16:05:14.300Z,28.70
2018-03-31T16:07:42.167Z,26.50
2018-03-31T16:10:10.067Z,29.23
2018-03-31T16:12:37.197Z,29.13
2018-03-31T16:15:04.351Z,29.20
2018-03-31T16:17:31.490Z,30.67
2018-03-31T16:19:59.422Z,29.37
2018-03-31T16:22:27.501Z,28.60
2018-03-31T16:24:54.601Z,26.37
2018-03-31T16:27:21.749Z,26.23
2018-03-31T16:29:48.876Z,29.43
2018-03-31T16:32:15.992Z,28.20
2018-03-31T16:34:43.997Z,27.80
2018-03-31T16:37:11.164Z,31.43
2018-03-31T16:39:38.263Z,33.67
2018-03-31T16:42:05.795Z,35.87
2018-03-31T16:44:32.913Z,33.77
2018-03-31T16:47:00.055Z,36.27
2018-03-31T16:49:27.192Z,33.53
2018-03-31T16:51:55.135Z,35.30
2018-03-31T16:54:22.239Z,36.77
2018-03-31T16:56:49.366Z,37.50
2018-03-31T16:59:16.566Z,38.83
2018-03-31T17:01:43.688Z,33.87
2018-03-31T17:04:10.866Z,34.77
2018-03-31T17:06:38.033Z,34.77
2018-03-31T17:09:05.152Z,39.20
2018-03-31T17:11:32.287Z,35.53
2018-03-31T17:13:59.451Z,34.10
2018-03-31T17:16:26.574Z,37.37
2018-03-31T17:18:53.696Z,38.57
2018-03-31T17:21:21.611Z,36.00
2018-03-31T17:23:48.730Z,37.40
2018-03-31T17:26:15.906Z,39.87
2018-03-31T17:28:43.079Z,36.97
2018-03-31T17:31:10.187Z,32.80
2018-03-31T17:33:37.344Z,35.00
2018-03-31T17:36:04.529Z,37.33
2018-03-31T17:38:31.677Z,35.53
2018-03-31T17:40:58.790Z,33.63
2018-03-31T17:43:25.956Z,35.57
2018-03-31T17:45:53.065Z,34.00
2018-03-31T17:48:20.192Z,33.93
2018-03-31T17:50:48.137Z,29.20
2018-03-31T17:53:15.364Z,28.73
2018-03-31T17:55:42.470Z,29.30
2018-03-31T17:58:10.381Z,29.40
2018-03-31T18:00:37.490Z,28.30
2018-03-31T18:03:04.610Z,29.50
2018-03-31T18:05:32.538Z,30.93
2018-03-31T18:07:59.642Z,31.37
2018-03-31T18:10:27.567Z,30.67
2018-03-31T18:12:54.689Z,28.37
2018-03-31T18:15:21.851Z,32.27
2018-03-31T18:17:49.019Z,32.17
2018-03-31T18:20:16.133Z,31.90
2018-03-31T18:22:43.324Z,31.20
2018-03-31T18:25:10.449Z,31.17
2018-03-31T18:27:37.553Z,25.57
2018-03-31T18:30:05.468Z,29.27
2018-03-31T18:32:32.557Z,35.33
2018-03-31T18:35:00.483Z,34.67
2018-03-31T18:37:27.614Z,36.00
2018-03-31T18:39:54.724Z,38.20
2018-03-31T18:42:22.690Z,41.43
2018-03-31T18:44:50.608Z,38.57
2018-03-31T18:47:17.913Z,49.13
2018-03-31T18:49:45.834Z,50.93
2018-03-31T18:52:12.941Z,55.73
2018-03-31T18:54:40.050Z,55.87
2018-03-31T18:57:07.197Z,54.77
2018-03-31T18:59:34.354Z,54.70
2018-03-31T19:02:01.536Z,61.23
2018-03-31T19:04:29.461Z,60.17
2018-03-31T19:06:56.586Z,63.90
2018-03-31T19:09:23.698Z,57.53
2018-03-31T19:11:51.608Z,52.63
2018-03-31T19:14:18.790Z,92.47
2018-03-31T19:16:51.414Z,55.67
2018-03-31T19:19:18.510Z,57.97
2018-03-31T19:21:45.635Z,55.17
2018-03-31T19:26:47.515Z,52.03
2018-03-31T19:29:14.614Z,49.50
2018-03-31T19:31:42.513Z,45.87
2018-03-31T19:34:09.718Z,45.13
2018-03-31T19:36:37.735Z,46.23
2018-03-31T19:39:04.848Z,46.00
2018-03-31T19:41:32.770Z,45.57
2018-03-31T19:43:59.925Z,44.83
2018-03-31T19:46:27.025Z,47.67
2018-03-31T19:48:54.600Z,45.33
2018-03-31T19:51:22.599Z,43.17
2018-03-31T19:53:49.853Z,43.50
2018-03-31T19:56:17.005Z,41.20
2018-03-31T19:58:44.262Z,41.83
2018-03-31T20:01:12.287Z,40.30
2018-03-31T20:03:39.486Z,40.27
2018-03-31T20:06:06.670Z,39.37
2018-03-31T20:08:33.847Z,37.17
2018-03-31T20:11:01.103Z,39.10
2018-03-31T20:13:29.037Z,37.10
2018-03-31T20:15:56.147Z,34.50
2018-03-31T20:18:23.320Z,34.80
2018-03-31T20:20:51.220Z,35.77
2018-03-31T20:23:18.354Z,37.63
2018-03-31T20:25:45.506Z,39.73
2018-03-31T20:28:12.654Z,41.07
2018-03-31T20:30:40.201Z,39.10
2018-03-31T20:33:07.354Z,36.67
2018-03-31T20:35:34.547Z,35.93
2018-03-31T20:38:01.684Z,35.93
2018-03-31T20:40:28.809Z,38.37
2018-03-31T20:42:57.395Z,37.33
2018-03-31T20:45:25.403Z,36.57
2018-03-31T20:47:53.358Z,35.10
2018-03-31T20:50:20.487Z,34.43
2018-03-31T20:52:47.598Z,32.90
2018-03-31T20:55:15.524Z,34.43
2018-03-31T20:57:42.650Z,29.70
2018-03-31T21:00:09.755Z,31.40
2018-03-31T21:02:37.682Z,30.33
2018-03-31T21:05:04.816Z,36.07
2018-03-31T21:07:31.936Z,32.43
2018-03-31T21:09:59.832Z,34.87
2018-03-31T21:12:26.988Z,35.50
2018-03-31T21:14:54.101Z,33.37
2018-03-31T21:17:21.970Z,34.50
2018-03-31T21:19:49.131Z,31.80
2018-03-31T21:22:16.275Z,30.73
2018-03-31T21:24:43.396Z,32.67
2018-03-31T21:27:11.267Z,31.73
2018-03-31T21:29:39.220Z,31.43
2018-03-31T21:32:07.106Z,28.40
2018-03-31T21:34:34.997Z,28.40
2018-03-31T21:37:02.168Z,28.57
2018-03-31T21:39:29.321Z,24.43
2018-03-31T21:41:56.512Z,25.27
2018-03-31T21:44:24.418Z,26.37
2018-03-31T21:46:51.583Z,25.70
2018-03-31T21:49:18.801Z,25.53
2018-03-31T21:51:46.984Z,25.80
2018-03-31T21:54:14.171Z,29.00
2018-03-31T21:56:41.494Z,28.40
2018-03-31T21:59:08.671Z,23.33
2018-03-31T22:01:35.794Z,24.20
2018-03-31T22:04:02.941Z,23.67
2018-03-31T22:06:30.044Z,25.20
2018-03-31T22:08:57.242Z,23.40
2018-03-31T22:11:24.356Z,23.03
2018-03-31T22:13:57.310Z,24.40
2018-03-31T22:16:24.440Z,24.57
2018-03-31T22:18:51.589Z,23.00
2018-03-31T22:21:18.728Z,22.70
2018-03-31T22:23:45.839Z,24.13
2018-03-31T22:26:13.707Z,22.53
2018-03-31T22:28:41.614Z,22.73
2018-03-31T22:31:08.842Z,20.93
2018-03-31T22:33:36.006Z,21.03
2018-03-31T22:36:03.319Z,21.03
2018-03-31T22:38:30.467Z,19.97
2018-03-31T22:40:58.338Z,19.93
2018-03-31T22:45:58.769Z,19.20
2018-03-31T22:48:26.767Z,17.53
2018-03-31T22:50:53.914Z,16.17
2018-03-31T22:53:21.043Z,18.30
2018-03-31T22:55:49.017Z,19.57
2018-03-31T22:58:16.907Z,19.27
2018-03-31T23:00:44.044Z,17.67
2018-03-31T23:03:11.182Z,18.60
2018-03-31T23:05:39.114Z,15.27
2018-03-31T23:08:06.206Z,14.20
2018-03-31T23:10:33.344Z,16.40
2018-03-31T23:13:01.254Z,15.50
2018-03-31T23:15:28.396Z,15.93
2018-03-31T23:17:55.554Z,15.53
2018-03-31T23:20:22.849Z,17.53
2018-03-31T23:22:50.730Z,15.70
2018-03-31T23:25:17.931Z,17.50
2018-03-31T23:27:45.054Z,16.53
2018-03-31T23:30:12.194Z,15.23
2018-03-31T23:32:39.331Z,14.87
2018-03-31T23:35:07.063Z,13.40
2018-03-31T23:37:34.171Z,12.97
2018-03-31T23:40:01.296Z,13.10
2018-03-31T23:42:28.443Z,12.70
2018-03-31T23:44:55.578Z,13.37
2018-03-31T23:47:23.458Z,11.83
2018-03-31T23:49:50.652Z,10.03
2018-03-31T23:52:17.757Z,9.20
2018-03-31T23:54:44.907Z,8.67
2018-03-31T23:57:12.085Z,9.73
2018-03-31T23:59:39.222Z,9.53
